PDT,Max TemperatureF,Mean TemperatureF,Min TemperatureF,Max Dew PointF,MeanDew PointF,Min DewpointF,Max Humidity, Mean Humidity, Min Humidity, Max Sea Level PressureIn, Mean Sea Level PressureIn, Min Sea Level PressureIn, Max VisibilityMiles, Mean VisibilityMiles, Min VisibilityMiles, Max Wind SpeedMPH, Mean Wind SpeedMPH, Max Gust SpeedMPH,PrecipitationIn, CloudCover, Events, WindDirDegrees
2013-3-1,75,54,33,19,13,5,35,22,11,30.46,30.37,30.28,10,10,10,13,5,18,0.00,0,,163
2013-3-2,77,56,36,24,19,14,41,23,10,30.33,30.19,30.02,10,10,10,16,5,,0.00,0,,194
2013-3-3,73,65,57,35,31,25,39,29,22,30.01,29.90,29.82,10,10,2,30,18,41,0.00,1,,222
2013-3-4,73,60,48,32,28,21,48,32,15,30.04,29.99,29.90,10,10,10,12,6,,0.00,0,,229
2013-3-5,73,55,37,33,25,17,55,32,17,30.05,29.96,29.86,10,10,10,24,9,36,0.00,0,,179
2013-3-6,64,54,45,35,30,26,66,40,25,29.94,29.89,29.84,10,10,10,30,19,43,0.00,3,,204
2013-3-7,60,52,44,35,31,23,66,47,24,29.91,29.85,29.81,10,10,10,24,15,30,0.00,5,,197
2013-3-8,46,42,37,43,35,28,100,81,60,29.93,29.80,29.73,10,10,6,15,5,,0.19,7,Rain,182
2013-3-9,64,47,30,37,31,17,100,75,18,30.16,30.00,29.91,10,6,0,13,3,17,0.00,3,Fog,174
2013-3-10,,,,,,,,,,,,,,,,,,,0.00,,,-1
2013-3-11,75,54,33,28,18,9,70,27,8,30.24,30.15,30.06,10,10,10,10,4,,0.00,0,,163
2013-3-12,80,58,37,27,21,12,62,29,8,30.18,30.12,30.05,10,10,10,8,5,,0.00,0,,179
2013-3-13,84,63,44,27,24,19,43,25,11,30.23,30.15,30.08,10,10,10,8,5,,0.00,1,,198
2013-3-14,90,68,46,34,28,24,48,26,10,30.18,30.09,30.01,10,10,10,10,5,,0.00,3,,191
2013-3-15,91,72,53,37,31,22,45,24,8,30.00,29.90,29.80,10,10,10,21,5,29,0.00,0,,224
2013-3-16,87,68,50,35,29,14,52,26,7,29.90,29.82,29.75,10,10,10,30,7,40,0.00,0,,243
2013-3-17,82,67,52,30,20,15,27,17,9,29.94,29.85,29.77,10,10,10,22,12,28,0.00,0,,232
2013-3-18,79,61,44,29,22,16,42,23,10,30.01,29.92,29.87,10,10,10,16,5,24,0.00,4,,208
2013-3-19,81,68,57,32,26,20,30,21,11,30.01,29.95,29.86,10,10,10,18,9,21,0.00,4,,195
2013-3-20,79,70,63,37,31,25,34,25,16,29.95,29.86,29.79,10,10,10,28,18,37,0.00,5,,224
2013-3-21,80,64,48,29,25,17,38,24,10,29.87,29.78,29.68,10,10,10,16,7,22,0.00,0,,208
2013-3-22,75,60,46,26,22,7,42,25,8,29.87,29.80,29.71,10,10,10,14,5,17,0.00,0,,232
2013-3-23,72,54,37,22,11,-1,45,21,6,30.07,29.97,29.89,10,10,10,12,3,,0.00,0,,116
2013-3-24,75,54,36,26,11,3,36,19,7,30.07,29.98,29.89,10,10,10,8,4,,0.00,0,,216
2013-3-25,79,62,45,27,20,10,42,23,10,29.98,29.89,29.81,10,10,10,20,5,,0.00,5,,201
2013-3-26,81,70,60,30,22,7,31,18,10,29.84,29.79,29.72,10,10,10,26,14,33,0.00,5,,222
2013-3-27,80,62,46,31,29,25,46,29,14,29.87,29.82,29.76,10,10,10,24,7,32,0.00,3,,216
2013-3-28,81,63,46,36,31,26,48,31,14,29.98,29.92,29.86,10,10,10,21,7,29,0.00,5,,193
2013-3-29,82,63,45,39,27,13,48,26,8,30.09,30.02,29.97,10,10,10,13,6,,0.00,0,,179
2013-3-30,82,70,59,39,32,21,39,27,12,30.04,29.98,29.91,10,10,10,18,8,25,0.00,0,,190
2013-3-31,77,66,57,44,38,30,50,39,20,29.97,29.93,29.88,10,10,10,24,14,32,0.00,1,,189